Time;durP1;ratioP1;P1;durP2;ratioP2;P2;SDS_P1;SDS_P2;PMS_P1;PMS_P2;Temp;Humidity;BMP_temperature;BMP_pressure;BME280_temperature;BME280_humidity;BME280_pressure;Samples;Min_cycle;Max_cycle;Signal;HPM_P1;HPM_P2
2023/07/11 00:00:28;;;;;;;;;;;;;;;;;;7387105;19;20018;-70
2023/07/11 00:02:53;;;;;;;;;;;;;;;;;;7368765;19;20235;-70
2023/07/11 00:05:19;;;;;;;;;;;;;;;;;;7364250;19;19942;-70
2023/07/11 00:07:44;;;;;;;;;;;;;;;;;;7365804;19;19926;-70
2023/07/11 00:10:11;;;;;;;;;;;;;;;;;;7365874;19;20234;-70
2023/07/11 00:12:37;;;;;;;;;;;;;;;;;;7391153;19;19954;-70
2023/07/11 00:15:02;;;;;;;;;;;;;;;;;;7366379;19;20290;-70
2023/07/11 00:17:27;;;;;;;;;;;;;;;;;;7367195;19;19929;-70
2023/07/11 00:19:54;;;;;;;;;;;;;;;;;;7365264;19;19930;-70
2023/07/11 00:22:20;;;;;;;;;;;;;;;;;;7366669;19;19918;-69
2023/07/11 00:24:46;;;;;;;;;;;;;;;;;;7369014;19;20231;-69
2023/07/11 00:27:12;;;;;;;;;;;;;;;;;;7389192;19;20365;-70
2023/07/11 00:29:37;;;;;;;;;;;;;;;;;;7368872;19;19932;-69
2023/07/11 00:32:03;;;;;;;;;;;;;;;;;;7371468;19;19922;-70
2023/07/11 00:34:28;;;;;;;;;;;;;;;;;;7368513;19;20450;-70
2023/07/11 00:36:54;;;;;;;;;;;;;;;;;;7367253;19;19944;-70
2023/07/11 00:39:19;;;;;;;;;;;;;;;;;;7389642;19;19919;-70
2023/07/11 00:41:44;;;;;;;;;;;;;;;;;;7367187;19;19911;-70
2023/07/11 00:44:13;;;;;;;;;;;;;;;;;;7366911;19;20201;-70
2023/07/11 00:46:39;;;;;;;;;;;;;;;;;;7367204;19;19986;-70
2023/07/11 00:49:04;;;;;;;;;;;;;;;;;;7366062;19;19919;-70
2023/07/11 00:51:35;;;;;;;;;;;;;;;;;;7385099;19;20472;-70
2023/07/11 00:54:01;;;;;;;;;;;;;;;;;;7365005;19;19949;-70
2023/07/11 00:56:29;;;;;;;;;;;;;;;;;;7366459;19;19923;-70
2023/07/11 00:58:55;;;;;;;;;;;;;;;;;;7365055;19;19919;-69
2023/07/11 01:01:20;;;;;;;;;;;;;;;;;;7364979;19;19915;-69
2023/07/11 01:03:46;;;;;;;;;;;;;;;;;;7370224;19;19923;-70
2023/07/11 01:06:13;;;;;;;;;;;;;;;;;;7394653;19;20026;-70
2023/07/11 01:08:39;;;;;;;;;;;;;;;;;;7372428;19;19921;-69
2023/07/11 01:11:04;;;;;;;;;;;;;;;;;;7369583;19;19978;-69
2023/07/11 01:13:29;;;;;;;;;;;;;;;;;;7366156;19;19990;-69
2023/07/11 01:15:54;;;;;;;;;;;;;;;;;;7367137;19;19932;-70
2023/07/11 01:18:20;;;;;;;;;;;;;;;;;;7384154;19;19911;-70
2023/07/11 01:20:45;;;;;;;;;;;;;;;;;;7363814;19;19944;-70
2023/07/11 01:23:10;;;;;;;;;;;;;;;;;;7366560;19;19923;-70
2023/07/11 01:25:38;;;;;;;;;;;;;;;;;;7366064;19;20327;-69
2023/07/11 01:28:03;;;;;;;;;;;;;;;;;;7364062;19;19926;-69
2023/07/11 01:30:28;;;;;;;;;;;;;;;;;;7387363;19;19922;-70
2023/07/11 01:32:53;;;;;;;;;;;;;;;;;;7363404;19;19926;-70
2023/07/11 01:35:19;;;;;;;;;;;;;;;;;;7365833;19;20022;-70
2023/07/11 01:37:44;;;;;;;;;;;;;;;;;;7364130;19;19931;-70
2023/07/11 01:40:09;;;;;;;;;;;;;;;;;;7362553;19;19955;-70
2023/07/11 01:42:35;;;;;;;;;;;;;;;;;;7385683;19;19910;-70
2023/07/11 01:45:00;;;;;;;;;;;;;;;;;;7365761;19;19934;-70
2023/07/11 01:47:25;;;;;;;;;;;;;;;;;;7361584;19;19911;-70
2023/07/11 01:49:50;;;;;;;;;;;;;;;;;;7363280;19;19983;-69
2023/07/11 01:52:17;;;;;;;;;;;;;;;;;;7367781;19;19914;-70
2023/07/11 01:54:43;;;;;;;;;;;;;;;;;;7385777;19;19926;-69
2023/07/11 01:57:08;;;;;;;;;;;;;;;;;;7366834;19;20424;-69
2023/07/11 01:59:34;;;;;;;;;;;;;;;;;;7363242;19;19918;-70
2023/07/11 02:01:59;;;;;;;;;;;;;;;;;;7367292;19;19937;-70
2023/07/11 02:04:25;;;;;;;;;;;;;;;;;;7371875;19;19921;-70
2023/07/11 02:06:51;;;;;;;;;;;;;;;;;;7370334;19;19923;-71
2023/07/11 02:09:16;;;;;;;;;;;;;;;;;;7391555;19;19915;-70
2023/07/11 02:11:42;;;;;;;;;;;;;;;;;;7370237;19;19956;-70
2023/07/11 02:14:07;;;;;;;;;;;;;;;;;;7370648;19;19994;-70
2023/07/11 02:16:32;;;;;;;;;;;;;;;;;;7370453;19;19926;-70
2023/07/11 02:18:58;;;;;;;;;;;;;;;;;;7370172;19;20586;-69
2023/07/11 02:21:23;;;;;;;;;;;;;;;;;;7391789;19;19911;-69
2023/07/11 02:23:49;;;;;;;;;;;;;;;;;;7370667;19;19935;-70
2023/07/11 02:26:15;;;;;;;;;;;;;;;;;;7371148;19;19911;-70
2023/07/11 02:28:40;;;;;;;;;;;;;;;;;;7368654;19;19919;-71
2023/07/11 02:31:05;;;;;;;;;;;;;;;;;;7369499;19;19930;-71
2023/07/11 02:33:30;;;;;;;;;;;;;;;;;;7393182;19;19922;-70
2023/07/11 02:35:56;;;;;;;;;;;;;;;;;;7372300;19;19927;-70
2023/07/11 02:38:21;;;;;;;;;;;;;;;;;;7369677;19;19926;-69
2023/07/11 02:40:46;;;;;;;;;;;;;;;;;;7368805;19;19930;-71
2023/07/11 02:43:11;;;;;;;;;;;;;;;;;;7371742;19;19944;-70
2023/07/11 02:45:37;;;;;;;;;;;;;;;;;;7393882;19;19923;-70
2023/07/11 02:48:02;;;;;;;;;;;;;;;;;;7369453;19;20022;-70
2023/07/11 02:50:27;;;;;;;;;;;;;;;;;;7371788;19;19926;-69
2023/07/11 02:52:52;;;;;;;;;;;;;;;;;;7372872;19;19914;-69
2023/07/11 02:55:18;;;;;;;;;;;;;;;;;;7371440;19;19915;-69
2023/07/11 02:57:43;;;;;;;;;;;;;;;;;;7391699;19;19919;-69
2023/07/11 03:00:09;;;;;;;;;;;;;;;;;;7367051;19;19931;-69
2023/07/11 03:02:34;;;;;;;;;;;;;;;;;;7370245;19;20269;-69
2023/07/11 03:05:00;;;;;;;;;;;;;;;;;;7372898;19;19923;-71
2023/07/11 03:07:25;;;;;;;;;;;;;;;;;;7370154;19;20053;-70
2023/07/11 03:09:50;;;;;;;;;;;;;;;;;;7368842;19;19923;-70
2023/07/11 03:12:15;;;;;;;;;;;;;;;;;;7392068;19;19922;-70
2023/07/11 03:14:41;;;;;;;;;;;;;;;;;;7367523;19;20354;-70
2023/07/11 03:17:06;;;;;;;;;;;;;;;;;;7366622;19;19941;-70
2023/07/11 03:19:31;;;;;;;;;;;;;;;;;;7368382;19;19922;-70
2023/07/11 03:21:56;;;;;;;;;;;;;;;;;;7367545;19;19919;-70
2023/07/11 03:24:21;;;;;;;;;;;;;;;;;;7393234;19;19944;-70
2023/07/11 03:26:47;;;;;;;;;;;;;;;;;;7374227;19;19944;-70
2023/07/11 03:29:13;;;;;;;;;;;;;;;;;;7370720;19;19998;-69
2023/07/11 03:31:39;;;;;;;;;;;;;;;;;;7368943;19;19919;-70
2023/07/11 03:34:04;;;;;;;;;;;;;;;;;;7367179;19;19916;-70
2023/07/11 03:36:29;;;;;;;;;;;;;;;;;;7390600;19;19978;-70
2023/07/11 03:38:54;;;;;;;;;;;;;;;;;;7368523;19;20193;-69
2023/07/11 03:41:20;;;;;;;;;;;;;;;;;;7371410;19;20006;-70
2023/07/11 03:43:45;;;;;;;;;;;;;;;;;;7371404;19;19939;-69
2023/07/11 03:46:10;;;;;;;;;;;;;;;;;;7372740;19;19926;-70
2023/07/11 03:48:35;;;;;;;;;;;;;;;;;;7388922;19;19927;-70
2023/07/11 03:51:01;;;;;;;;;;;;;;;;;;7367429;19;19919;-70
2023/07/11 03:53:26;;;;;;;;;;;;;;;;;;7368247;19;19930;-70
2023/07/11 03:55:51;;;;;;;;;;;;;;;;;;7365879;19;19919;-70
2023/07/11 03:58:16;;;;;;;;;;;;;;;;;;7367445;19;19975;-69
2023/07/11 04:00:42;;;;;;;;;;;;;;;;;;7382035;19;19923;-70
2023/07/11 04:03:07;;;;;;;;;;;;;;;;;;7365559;19;19950;-69
2023/07/11 04:05:33;;;;;;;;;;;;;;;;;;7370737;19;19922;-69
2023/07/11 04:07:58;;;;;;;;;;;;;;;;;;7368822;19;20323;-70
2023/07/11 04:10:23;;;;;;;;;;;;;;;;;;7361086;19;19931;-69
2023/07/11 04:12:50;;;;;;;;;;;;;;;;;;7366275;19;19986;-69
2023/07/11 04:15:15;;;;;;;;;;;;;;;;;;7388790;19;20314;-70
2023/07/11 04:17:41;;;;;;;;;;;;;;;;;;7367447;19;19915;-70
2023/07/11 04:20:06;;;;;;;;;;;;;;;;;;7365331;19;20369;-70
2023/07/11 04:22:31;;;;;;;;;;;;;;;;;;7367821;19;20262;-69
2023/07/11 04:24:57;;;;;;;;;;;;;;;;;;7367089;19;19929;-70
2023/07/11 04:27:23;;;;;;;;;;;;;;;;;;7386877;19;20584;-70
2023/07/11 04:29:48;;;;;;;;;;;;;;;;;;7364790;19;19915;-71
2023/07/11 04:32:13;;;;;;;;;;;;;;;;;;7368210;19;20291;-70
2023/07/11 04:34:40;;;;;;;;;;;;;;;;;;7368656;19;20363;-70
2023/07/11 04:37:06;;;;;;;;;;;;;;;;;;7367250;19;19919;-70
2023/07/11 04:39:31;;;;;;;;;;;;;;;;;;7388700;19;20291;-69
2023/07/11 04:41:56;;;;;;;;;;;;;;;;;;7363661;19;19911;-70
2023/07/11 04:44:21;;;;;;;;;;;;;;;;;;7363718;19;19915;-70
2023/07/11 04:46:47;;;;;;;;;;;;;;;;;;7364394;19;19918;-69
2023/07/11 04:49:12;;;;;;;;;;;;;;;;;;7365845;19;19927;-69
2023/07/11 04:51:37;;;;;;;;;;;;;;;;;;7389371;19;20356;-70
2023/07/11 04:54:02;;;;;;;;;;;;;;;;;;7361724;19;20227;-57
2023/07/11 04:56:28;;;;;;;;;;;;;;;;;;7366517;19;20470;-60
2023/07/11 04:58:53;;;;;;;;;;;;;;;;;;7366120;19;20361;-59
2023/07/11 05:01:18;;;;;;;;;;;;;;;;;;7365782;19;19932;-61
2023/07/11 05:03:44;;;;;;;;;;;;;;;;;;7385245;19;20252;-60
2023/07/11 05:06:11;;;;;;;;;;;;;;;;;;7376966;19;19915;-60
2023/07/11 05:08:37;;;;;;;;;;;;;;;;;;7363159;19;19922;-61
2023/07/11 05:11:03;;;;;;;;;;;;;;;;;;7363035;19;19911;-60
2023/07/11 05:13:29;;;;;;;;;;;;;;;;;;7365735;19;20611;-60
2023/07/11 05:15:58;;;;;;;;;;;;;;;;;;7365775;19;19914;-59
2023/07/11 05:18:24;;;;;;;;;;;;;;;;;;7385669;19;19919;-61
2023/07/11 05:20:53;;;;;;;;;;;;;;;;;;7360416;19;19937;-69
2023/07/11 05:23:18;;;;;;;;;;;;;;;;;;7362779;19;19923;-70
2023/07/11 05:25:43;;;;;;;;;;;;;;;;;;7367559;19;19986;-70
2023/07/11 05:28:08;;;;;;;;;;;;;;;;;;7364546;19;20000;-70
2023/07/11 05:30:37;;;;;;;;;;;;;;;;;;7386897;19;19919;-70
2023/07/11 05:33:02;;;;;;;;;;;;;;;;;;7367035;19;20554;-65
2023/07/11 05:35:27;;;;;;;;;;;;;;;;;;7365516;19;19915;-65
2023/07/11 05:37:52;;;;;;;;;;;;;;;;;;7367910;19;19966;-69
2023/07/11 05:40:18;;;;;;;;;;;;;;;;;;7366513;19;20382;-66
2023/07/11 05:42:43;;;;;;;;;;;;;;;;;;7390564;19;19940;-68
2023/07/11 05:45:08;;;;;;;;;;;;;;;;;;7371454;19;19911;-68
2023/07/11 05:47:33;;;;;;;;;;;;;;;;;;7371352;19;19986;-63
2023/07/11 05:49:59;;;;;;;;;;;;;;;;;;7372960;19;19922;-60
2023/07/11 05:52:24;;;;;;;;;;;;;;;;;;7367641;19;19922;-60
2023/07/11 05:54:49;;;;;;;;;;;;;;;;;;7362877;19;19913;-59
2023/07/11 05:57:14;;;;;;;;;;;;;;;;;;7385595;19;19926;-59
2023/07/11 05:59:40;;;;;;;;;;;;;;;;;;7360403;19;19936;-68
2023/07/11 06:02:05;;;;;;;;;;;;;;;;;;7361285;19;19926;-68
2023/07/11 06:04:31;;;;;;;;;;;;;;;;;;7361534;19;19948;-69
2023/07/11 06:06:56;;;;;;;;;;;;;;;;;;7363761;19;19935;-68
2023/07/11 06:09:21;;;;;;;;;;;;;;;;;;7385461;19;19915;-68
2023/07/11 06:11:47;;;;;;;;;;;;;;;;;;7365410;19;19925;-68
2023/07/11 06:14:13;;;;;;;;;;;;;;;;;;7365923;19;20287;-68
2023/07/11 06:16:39;;;;;;;;;;;;;;;;;;7366311;19;19922;-68
2023/07/11 06:19:05;;;;;;;;;;;;;;;;;;7367124;19;20347;-69
2023/07/11 06:21:30;;;;;;;;;;;;;;;;;;7383515;19;19968;-68
2023/07/11 06:23:56;;;;;;;;;;;;;;;;;;7366075;19;20366;-68
2023/07/11 06:26:21;;;;;;;;;;;;;;;;;;7365393;19;19950;-69
2023/07/11 06:28:46;;;;;;;;;;;;;;;;;;7365179;19;19928;-69
2023/07/11 06:31:12;;;;;;;;;;;;;;;;;;7360547;19;19915;-69
2023/07/11 06:33:37;;;;;;;;;;;;;;;;;;7387751;19;19922;-69
2023/07/11 06:36:03;;;;;;;;;;;;;;;;;;7365077;19;19933;-69
2023/07/11 06:38:29;;;;;;;;;;;;;;;;;;7365924;19;20029;-69
2023/07/11 06:40:55;;;;;;;;;;;;;;;;;;7364825;19;20333;-69
2023/07/11 06:43:21;;;;;;;;;;;;;;;;;;7366985;19;19998;-68
2023/07/11 06:45:47;;;;;;;;;;;;;;;;;;7365917;19;19923;-68
2023/07/11 06:48:14;;;;;;;;;;;;;;;;;;7385429;19;20300;-69
2023/07/11 06:50:39;;;;;;;;;;;;;;;;;;7369045;19;20306;-69
2023/07/11 06:53:04;;;;;;;;;;;;;;;;;;7371373;19;19968;-69
2023/07/11 06:55:30;;;;;;;;;;;;;;;;;;7370764;19;19925;-69
2023/07/11 06:57:55;;;;;;;;;;;;;;;;;;7370923;19;19915;-68
2023/07/11 07:00:20;;;;;;;;;;;;;;;;;;7391398;19;19977;-68
2023/07/11 07:02:46;;;;;;;;;;;;;;;;;;7371936;19;19947;-69
2023/07/11 07:05:11;;;;;;;;;;;;;;;;;;7372622;19;19986;-69
2023/07/11 07:07:36;;;;;;;;;;;;;;;;;;7370296;19;19930;-69
2023/07/11 07:10:02;;;;;;;;;;;;;;;;;;7370565;19;19935;-69
2023/07/11 07:12:27;;;;;;;;;;;;;;;;;;7396203;19;19929;-69
2023/07/11 07:14:52;;;;;;;;;;;;;;;;;;7376386;19;19926;-70
2023/07/11 07:17:17;;;;;;;;;;;;;;;;;;7373297;19;19992;-69
2023/07/11 07:19:43;;;;;;;;;;;;;;;;;;7370011;19;19907;-69
2023/07/11 07:22:08;;;;;;;;;;;;;;;;;;7372394;19;19922;-68
2023/07/11 07:24:34;;;;;;;;;;;;;;;;;;7394052;19;20262;-69
2023/07/11 07:26:59;;;;;;;;;;;;;;;;;;7369715;19;19918;-69
2023/07/11 07:29:24;;;;;;;;;;;;;;;;;;7371607;19;19943;-68
2023/07/11 07:31:49;;;;;;;;;;;;;;;;;;7369626;19;19948;-68
2023/07/11 07:34:14;;;;;;;;;;;;;;;;;;7371229;19;19938;-69
2023/07/11 07:36:40;;;;;;;;;;;;;;;;;;7392272;19;19971;-68
2023/07/11 07:39:05;;;;;;;;;;;;;;;;;;7370980;19;19942;-68
2023/07/11 07:41:31;;;;;;;;;;;;;;;;;;7369389;19;20429;-69
2023/07/11 07:43:56;;;;;;;;;;;;;;;;;;7371151;19;19925;-69
2023/07/11 07:46:21;;;;;;;;;;;;;;;;;;7371111;19;19922;-69
2023/07/11 07:48:46;;;;;;;;;;;;;;;;;;7368298;19;19940;-69
2023/07/11 07:51:13;;;;;;;;;;;;;;;;;;7391167;19;19930;-70
2023/07/11 07:53:39;;;;;;;;;;;;;;;;;;7370626;19;20028;-69
2023/07/11 07:56:06;;;;;;;;;;;;;;;;;;7368932;19;19939;-69
2023/07/11 07:58:31;;;;;;;;;;;;;;;;;;7369359;19;19930;-69
2023/07/11 08:00:57;;;;;;;;;;;;;;;;;;7367431;19;19915;-69
2023/07/11 08:03:22;;;;;;;;;;;;;;;;;;7391568;19;19915;-70
2023/07/11 08:05:47;;;;;;;;;;;;;;;;;;7371360;19;19919;-70
2023/07/11 08:08:12;;;;;;;;;;;;;;;;;;7369470;19;19982;-69
2023/07/11 08:10:37;;;;;;;;;;;;;;;;;;7370595;19;19944;-69
2023/07/11 08:13:03;;;;;;;;;;;;;;;;;;7371065;19;19924;-69
2023/07/11 08:15:28;;;;;;;;;;;;;;;;;;7394472;19;19911;-69
2023/07/11 08:17:53;;;;;;;;;;;;;;;;;;7369006;19;19918;-70
2023/07/11 08:20:18;;;;;;;;;;;;;;;;;;7367657;19;19918;-69
2023/07/11 08:22:44;;;;;;;;;;;;;;;;;;7368161;19;19918;-69
2023/07/11 08:25:09;;;;;;;;;;;;;;;;;;7372811;19;19918;-69
2023/07/11 08:27:34;;;;;;;;;;;;;;;;;;7390722;19;20275;-69
2023/07/11 08:29:59;;;;;;;;;;;;;;;;;;7367863;19;19982;-69
2023/07/11 08:32:24;;;;;;;;;;;;;;;;;;7369020;19;19919;-70
2023/07/11 08:34:50;;;;;;;;;;;;;;;;;;7369755;19;19918;-70
2023/07/11 08:37:15;;;;;;;;;;;;;;;;;;7366509;19;19938;-69
2023/07/11 08:39:41;;;;;;;;;;;;;;;;;;7389503;19;19923;-70
2023/07/11 08:42:12;;;;;;;;;;;;;;;;;;7369275;19;19922;-61
2023/07/11 08:45:03;;;;;;;;;;;;;;;;;;7369063;19;19922;-61
2023/07/11 08:47:31;;;;;;;;;;;;;;;;;;7361622;19;20244;-66
2023/07/11 08:50:08;;;;;;;;;;;;;;;;;;7368766;19;19981;-65
2023/07/11 08:52:34;;;;;;;;;;;;;;;;;;7368211;19;19979;-65
2023/07/11 08:55:12;;;;;;;;;;;;;;;;;;7367058;19;20339;-67
2023/07/11 08:57:39;;;;;;;;;;;;;;;;;;7388826;19;19919;-68
2023/07/11 09:00:08;;;;;;;;;;;;;;;;;;7365834;19;19919;-66
2023/07/11 09:02:34;;;;;;;;;;;;;;;;;;7366673;19;20626;-67
2023/07/11 09:05:00;;;;;;;;;;;;;;;;;;7366975;19;19918;-68
2023/07/11 09:07:28;;;;;;;;;;;;;;;;;;7366689;19;19922;-68
2023/07/11 09:09:53;;;;;;;;;;;;;;;;;;7367250;19;19922;-69
2023/07/11 09:12:39;;;;;;;;;;;;;;;;;;7388163;19;19914;-67
2023/07/11 09:15:15;;;;;;;;;;;;;;;;;;7365711;19;19915;-67
2023/07/11 09:17:48;;;;;;;;;;;;;;;;;;7366058;19;19922;-67
2023/07/11 09:20:16;;;;;;;;;;;;;;;;;;7364937;19;20332;-67
2023/07/11 09:22:59;;;;;;;;;;;;;;;;;;7367405;19;20376;-68
2023/07/11 09:25:38;;;;;;;;;;;;;;;;;;7367579;19;19926;-66
2023/07/11 09:28:09;;;;;;;;;;;;;;;;;;7365562;19;19926;-66
2023/07/11 09:30:41;;;;;;;;;;;;;;;;;;7389060;19;20425;-69
2023/07/11 09:33:19;;;;;;;;;;;;;;;;;;7366244;19;20318;-64
2023/07/11 09:35:45;;;;;;;;;;;;;;;;;;7364977;19;19926;-65
2023/07/11 09:38:17;;;;;;;;;;;;;;;;;;7365504;19;19918;-67
2023/07/11 09:40:48;;;;;;;;;;;;;;;;;;7364560;19;19931;-66
2023/07/11 09:43:13;;;;;;;;;;;;;;;;;;7367456;19;19923;-67
2023/07/11 09:45:41;;;;;;;;;;;;;;;;;;7389376;19;19919;-69
2023/07/11 09:48:10;;;;;;;;;;;;;;;;;;7363739;19;19930;-69
2023/07/11 09:50:53;;;;;;;;;;;;;;;;;;7364674;19;19911;-69
2023/07/11 09:53:26;;;;;;;;;;;;;;;;;;7367910;19;20013;-69
2023/07/11 09:55:56;;;;;;;;;;;;;;;;;;7365255;19;20408;-69
2023/07/11 09:58:21;;;;;;;;;;;;;;;;;;7365083;19;19919;-62
2023/07/11 10:00:48;;;;;;;;;;;;;;;;;;7363962;19;20289;-62
2023/07/11 10:03:23;;;;;;;;;;;;;;;;;;7388149;19;19930;-62
2023/07/11 10:05:49;;;;;;;;;;;;;;;;;;7364642;19;20762;-61
2023/07/11 10:08:27;;;;;;;;;;;;;;;;;;7366338;19;20286;-62
2023/07/11 10:10:53;;;;;;;;;;;;;;;;;;7364035;19;19922;-67
2023/07/11 10:13:20;;;;;;;;;;;;;;;;;;7367931;19;19922;-65
2023/07/11 10:15:55;;;;;;;;;;;;;;;;;;7374879;19;19919;-63
2023/07/11 10:18:22;;;;;;;;;;;;;;;;;;7386781;19;19923;-65
2023/07/11 10:20:49;;;;;;;;;;;;;;;;;;7359609;19;19926;-67
2023/07/11 10:23:19;;;;;;;;;;;;;;;;;;7365701;19;19942;-66
2023/07/11 10:25:44;;;;;;;;;;;;;;;;;;7372250;19;19922;-68
2023/07/11 10:28:33;;;;;;;;;;;;;;;;;;7371922;19;19929;-66
2023/07/11 10:31:04;;;;;;;;;;;;;;;;;;7370996;19;19974;-59
2023/07/11 10:33:33;;;;;;;;;;;;;;;;;;7393851;19;19915;-58
2023/07/11 10:36:33;;;;;;;;;;;;;;;;;;7372358;19;19915;-59
2023/07/11 10:39:04;;;;;;;;;;;;;;;;;;7370212;19;19919;-58
2023/07/11 10:41:36;;;;;;;;;;;;;;;;;;7369383;19;20258;-56
2023/07/11 10:44:03;;;;;;;;;;;;;;;;;;7373191;19;20362;-65
2023/07/11 10:46:41;;;;;;;;;;;;;;;;;;7372496;19;19919;-64
2023/07/11 10:49:09;;;;;;;;;;;;;;;;;;7371362;19;19919;-69
2023/07/11 10:51:39;;;;;;;;;;;;;;;;;;7392494;19;19925;-68
2023/07/11 10:54:09;;;;;;;;;;;;;;;;;;7371116;19;20313;-69
2023/07/11 10:56:37;;;;;;;;;;;;;;;;;;7371841;19;19915;-68
2023/07/11 10:59:02;;;;;;;;;;;;;;;;;;7371813;19;20007;-69
2023/07/11 11:01:35;;;;;;;;;;;;;;;;;;7369379;19;19934;-68
2023/07/11 11:04:23;;;;;;;;;;;;;;;;;;7371726;19;19911;-64
2023/07/11 11:06:55;;;;;;;;;;;;;;;;;;7369544;19;20338;-63
2023/07/11 11:09:20;;;;;;;;;;;;;;;;;;7393317;19;19915;-65
2023/07/11 11:12:12;;;;;;;;;;;;;;;;;;7368345;19;19921;-61
2023/07/11 11:14:42;;;;;;;;;;;;;;;;;;7371407;19;19944;-62
2023/07/11 11:17:20;;;;;;;;;;;;;;;;;;7368746;19;19911;-59
2023/07/11 11:20:00;;;;;;;;;;;;;;;;;;7368334;19;19925;-60
2023/07/11 11:22:34;;;;;;;;;;;;;;;;;;7370467;19;19914;-60
2023/07/11 11:25:00;;;;;;;;;;;;;;;;;;7371010;19;20018;-62
2023/07/11 11:27:34;;;;;;;;;;;;;;;;;;7392280;19;19914;-60
2023/07/11 11:30:00;;;;;;;;;;;;;;;;;;7369485;19;19915;-60
2023/07/11 11:32:30;;;;;;;;;;;;;;;;;;7370988;19;20047;-60
2023/07/11 11:34:58;;;;;;;;;;;;;;;;;;7366758;19;19922;-61
2023/07/11 11:37:43;;;;;;;;;;;;;;;;;;7370723;19;19915;-62
2023/07/11 11:40:14;;;;;;;;;;;;;;;;;;7369406;19;19919;-61
2023/07/11 11:42:41;;;;;;;;;;;;;;;;;;7393153;19;19957;-61
2023/07/11 11:45:11;;;;;;;;;;;;;;;;;;7370204;19;19911;-66
2023/07/11 11:47:38;;;;;;;;;;;;;;;;;;7368587;19;19923;-65
2023/07/11 11:50:03;;;;;;;;;;;;;;;;;;7368167;19;20405;-66
2023/07/11 11:52:32;;;;;;;;;;;;;;;;;;7371019;19;19939;-61
2023/07/11 11:54:57;;;;;;;;;;;;;;;;;;7368718;19;19914;-61
2023/07/11 11:57:24;;;;;;;;;;;;;;;;;;7391569;19;19989;-64
2023/07/11 11:59:50;;;;;;;;;;;;;;;;;;7362930;19;19915;-67
2023/07/11 12:02:17;;;;;;;;;;;;;;;;;;7370422;19;19923;-61
2023/07/11 12:05:15;;;;;;;;;;;;;;;;;;7362656;19;19952;-66
2023/07/11 12:07:40;;;;;;;;;;;;;;;;;;7367362;19;19927;-61
2023/07/11 12:10:08;;;;;;;;;;;;;;;;;;7368976;19;19931;-60
2023/07/11 12:12:33;;;;;;;;;;;;;;;;;;7391816;19;19922;-67
2023/07/11 12:15:00;;;;;;;;;;;;;;;;;;7368797;19;20369;-71
2023/07/11 12:17:31;;;;;;;;;;;;;;;;;;7368454;19;20299;-67
2023/07/11 12:20:02;;;;;;;;;;;;;;;;;;7366845;19;19919;-68
2023/07/11 12:22:30;;;;;;;;;;;;;;;;;;7369754;19;20346;-68
2023/07/11 12:24:59;;;;;;;;;;;;;;;;;;7369358;19;19950;-60
2023/07/11 12:27:24;;;;;;;;;;;;;;;;;;7391261;19;19922;-76
2023/07/11 12:29:50;;;;;;;;;;;;;;;;;;7367323;19;19919;-58
2023/07/11 12:32:33;;;;;;;;;;;;;;;;;;7368671;19;19927;-58
2023/07/11 12:35:05;;;;;;;;;;;;;;;;;;7368623;19;19910;-59
2023/07/11 12:37:35;;;;;;;;;;;;;;;;;;7368985;19;20358;-63
2023/07/11 12:40:11;;;;;;;;;;;;;;;;;;7365670;19;20398;-69
2023/07/11 12:42:53;;;;;;;;;;;;;;;;;;7389905;19;19921;-64
2023/07/11 12:45:31;;;;;;;;;;;;;;;;;;7365812;19;25717;-64
2023/07/11 12:48:14;;;;;;;;;;;;;;;;;;7360519;19;19936;-70
2023/07/11 12:50:43;;;;;;;;;;;;;;;;;;7366085;19;20320;-65
2023/07/11 12:53:08;;;;;;;;;;;;;;;;;;7364805;19;19978;-66
2023/07/11 12:55:33;;;;;;;;;;;;;;;;;;7364742;19;20376;-63
2023/07/11 12:57:59;;;;;;;;;;;;;;;;;;7366172;19;20288;-67
2023/07/11 13:00:26;;;;;;;;;;;;;;;;;;7387834;19;20264;-68
2023/07/11 13:02:53;;;;;;;;;;;;;;;;;;7362841;19;20480;-69
2023/07/11 13:05:18;;;;;;;;;;;;;;;;;;7368797;19;20573;-69
2023/07/11 13:07:44;;;;;;;;;;;;;;;;;;7366484;19;19929;-65
2023/07/11 13:10:24;;;;;;;;;;;;;;;;;;7365551;19;20546;-69
2023/07/11 13:12:51;;;;;;;;;;;;;;;;;;7370916;19;19923;-72
2023/07/11 13:15:21;;;;;;;;;;;;;;;;;;7391882;19;19978;-60
2023/07/11 13:17:47;;;;;;;;;;;;;;;;;;7368330;19;19948;-70
2023/07/11 13:20:20;;;;;;;;;;;;;;;;;;7366954;19;19918;-61
2023/07/11 13:22:46;;;;;;;;;;;;;;;;;;7367743;19;20023;-61
2023/07/11 13:25:14;;;;;;;;;;;;;;;;;;7367792;19;19931;-66
2023/07/11 13:27:41;;;;;;;;;;;;;;;;;;7387147;19;19974;-62
2023/07/11 13:30:20;;;;;;;;;;;;;;;;;;7366715;19;19953;-59
2023/07/11 13:32:45;;;;;;;;;;;;;;;;;;7368629;19;20018;-62
2023/07/11 13:35:14;;;;;;;;;;;;;;;;;;7365096;19;19978;-67
2023/07/11 13:37:42;;;;;;;;;;;;;;;;;;7363323;19;19918;-67
2023/07/11 13:40:27;;;;;;;;;;;;;;;;;;7363721;19;20002;-67
2023/07/11 13:42:52;;;;;;;;;;;;;;;;;;7366610;19;19940;-68
2023/07/11 13:45:18;;;;;;;;;;;;;;;;;;7385864;19;20399;-67
2023/07/11 13:47:44;;;;;;;;;;;;;;;;;;7365409;19;19926;-67
2023/07/11 13:50:17;;;;;;;;;;;;;;;;;;7365353;19;19911;-67
2023/07/11 13:52:55;;;;;;;;;;;;;;;;;;7368094;19;19910;-67
2023/07/11 13:55:26;;;;;;;;;;;;;;;;;;7366197;19;19914;-67
2023/07/11 13:57:51;;;;;;;;;;;;;;;;;;7366796;19;19911;-67
2023/07/11 14:00:18;;;;;;;;;;;;;;;;;;7394404;19;19915;-67
2023/07/11 14:02:43;;;;;;;;;;;;;;;;;;7375251;19;19914;-67
2023/07/11 14:05:28;;;;;;;;;;;;;;;;;;7374273;19;20358;-66
2023/07/11 14:07:55;;;;;;;;;;;;;;;;;;7373334;19;19915;-67
2023/07/11 14:10:22;;;;;;;;;;;;;;;;;;7372891;19;19927;-67
2023/07/11 14:12:48;;;;;;;;;;;;;;;;;;7374401;19;19927;-67
2023/07/11 14:15:15;;;;;;;;;;;;;;;;;;7395533;19;19915;-67
2023/07/11 14:17:40;;;;;;;;;;;;;;;;;;7371192;19;20183;-67
2023/07/11 14:20:11;;;;;;;;;;;;;;;;;;7370408;19;19979;-67
2023/07/11 14:22:36;;;;;;;;;;;;;;;;;;7372324;19;19919;-67
2023/07/11 14:25:01;;;;;;;;;;;;;;;;;;7373416;19;19922;-67
2023/07/11 14:27:26;;;;;;;;;;;;;;;;;;7387684;19;19925;-69
2023/07/11 14:29:52;;;;;;;;;;;;;;;;;;7371817;19;20253;-68
2023/07/11 14:32:18;;;;;;;;;;;;;;;;;;7372831;19;20539;-71
2023/07/11 14:34:43;;;;;;;;;;;;;;;;;;7373427;19;19919;-74
2023/07/11 14:37:12;;;;;;;;;;;;;;;;;;7372758;19;20304;-72
2023/07/11 14:39:39;;;;;;;;;;;;;;;;;;7399718;19;20341;-77
2023/07/11 14:42:09;;;;;;;;;;;;;;;;;;7385330;19;19991;-75
2023/07/11 14:44:34;;;;;;;;;;;;;;;;;;7383317;19;19981;-78
2023/07/11 14:47:00;;;;;;;;;;;;;;;;;;7387629;19;20354;-75
2023/07/11 14:49:25;;;;;;;;;;;;;;;;;;7385765;19;19915;-76
2023/07/11 14:51:51;;;;;;;;;;;;;;;;;;7379975;19;19941;-75
2023/07/11 14:54:18;;;;;;;;;;;;;;;;;;7399267;19;20223;-74
2023/07/11 14:56:44;;;;;;;;;;;;;;;;;;7376072;19;19922;-76
2023/07/11 14:59:23;;;;;;;;;;;;;;;;;;7372509;19;19930;-72
2023/07/11 15:01:49;;;;;;;;;;;;;;;;;;7373308;19;19923;-71
2023/07/11 15:04:14;;;;;;;;;;;;;;;;;;7373684;19;19962;-68
2023/07/11 15:06:39;;;;;;;;;;;;;;;;;;7392161;19;19923;-68
2023/07/11 15:09:04;;;;;;;;;;;;;;;;;;7366375;19;20338;-69
2023/07/11 15:11:34;;;;;;;;;;;;;;;;;;7367418;19;20397;-67
2023/07/11 15:13:59;;;;;;;;;;;;;;;;;;7372351;19;19915;-67
2023/07/11 15:16:25;;;;;;;;;;;;;;;;;;7371338;19;19918;-68
2023/07/11 15:18:50;;;;;;;;;;;;;;;;;;7364947;19;20413;-66
2023/07/11 15:21:15;;;;;;;;;;;;;;;;;;7385636;19;19992;-67
2023/07/11 15:23:40;;;;;;;;;;;;;;;;;;7366113;19;19919;-67
2023/07/11 15:26:06;;;;;;;;;;;;;;;;;;7367079;19;19926;-67
2023/07/11 15:28:31;;;;;;;;;;;;;;;;;;7366072;19;19919;-67
2023/07/11 15:30:58;;;;;;;;;;;;;;;;;;7365591;19;20504;-67
2023/07/11 15:33:23;;;;;;;;;;;;;;;;;;7384567;19;20286;-56
2023/07/11 15:35:48;;;;;;;;;;;;;;;;;;7360451;19;19933;-57
2023/07/11 15:38:17;;;;;;;;;;;;;;;;;;7363927;19;19923;-55
2023/07/11 15:40:42;;;;;;;;;;;;;;;;;;7361634;19;19926;-55
2023/07/11 15:43:14;;;;;;;;;;;;;;;;;;7363697;19;19956;-56
2023/07/11 15:45:39;;;;;;;;;;;;;;;;;;7390079;19;19923;-56
2023/07/11 15:48:05;;;;;;;;;;;;;;;;;;7364889;19;20814;-55
2023/07/11 15:50:30;;;;;;;;;;;;;;;;;;7365479;19;20554;-56
2023/07/11 15:52:55;;;;;;;;;;;;;;;;;;7366714;19;20030;-55
2023/07/11 15:55:22;;;;;;;;;;;;;;;;;;7368859;19;19911;-54
2023/07/11 15:57:48;;;;;;;;;;;;;;;;;;7370622;19;19918;-56
2023/07/11 16:00:18;;;;;;;;;;;;;;;;;;7389879;19;19911;-54
2023/07/11 16:02:44;;;;;;;;;;;;;;;;;;7370709;19;19910;-56
2023/07/11 16:05:11;;;;;;;;;;;;;;;;;;7370119;19;20257;-53
2023/07/11 16:07:36;;;;;;;;;;;;;;;;;;7369130;19;20339;-53
2023/07/11 16:10:04;;;;;;;;;;;;;;;;;;7368554;19;19921;-55
2023/07/11 16:12:29;;;;;;;;;;;;;;;;;;7391038;19;19934;-54
2023/07/11 16:14:54;;;;;;;;;;;;;;;;;;7373097;19;20303;-56
2023/07/11 16:17:19;;;;;;;;;;;;;;;;;;7371337;19;19930;-54
2023/07/11 16:19:46;;;;;;;;;;;;;;;;;;7369529;19;19979;-57
2023/07/11 16:22:16;;;;;;;;;;;;;;;;;;7370471;19;19925;-56
2023/07/11 16:24:41;;;;;;;;;;;;;;;;;;7393199;19;19941;-56
2023/07/11 16:27:08;;;;;;;;;;;;;;;;;;7365955;19;20457;-57
2023/07/11 16:29:33;;;;;;;;;;;;;;;;;;7367872;19;20267;-56
2023/07/11 16:31:59;;;;;;;;;;;;;;;;;;7367194;19;19921;-56
2023/07/11 16:34:25;;;;;;;;;;;;;;;;;;7366452;19;19933;-55
2023/07/11 16:36:52;;;;;;;;;;;;;;;;;;7367821;19;19907;-67
2023/07/11 16:39:27;;;;;;;;;;;;;;;;;;7392419;19;20468;-68
2023/07/11 16:41:53;;;;;;;;;;;;;;;;;;7369006;19;19918;-67
2023/07/11 16:44:18;;;;;;;;;;;;;;;;;;7371442;19;19922;-68
2023/07/11 16:46:55;;;;;;;;;;;;;;;;;;7370186;19;20338;-68